Time;durP1;ratioP1;P1;durP2;ratioP2;P2;SDS_P1;SDS_P2;PMS_P1;PMS_P2;Temp;Humidity;BMP_temperature;BMP_pressure;BME280_temperature;BME280_humidity;BME280_pressure;Samples;Min_cycle;Max_cycle;Signal;HPM_P1;HPM_P2
2023/10/08 00:04:45;;;;;;;1.30;1.10;;;21.50;59.30;;;;;;217405;1298;23946;-66
2023/10/08 00:09:51;;;;;;;0.80;0.80;;;21.50;59.30;;;;;;217361;1288;22554;-66
2023/10/08 00:14:54;;;;;;;1.00;1.00;;;21.40;59.20;;;;;;217410;1295;25426;-66
2023/10/08 00:20:00;;;;;;;1.40;1.10;;;21.40;59.20;;;;;;217318;1297;22562;-65
2023/10/08 00:25:11;;;;;;;1.20;0.70;;;21.40;59.50;;;;;;217226;1298;22562;-67
2023/10/08 00:30:17;;;;;;;1.30;0.90;;;21.40;59.10;;;;;;217316;1291;25806;-65
2023/10/08 00:35:20;;;;;;;0.50;0.50;;;21.40;59.00;;;;;;217382;1291;22554;-66
2023/10/08 00:40:24;;;;;;;1.10;0.90;;;21.40;59.00;;;;;;217410;1298;22567;-65
2023/10/08 00:45:30;;;;;;;1.10;1.00;;;21.40;59.10;;;;;;217248;1275;22783;-66
2023/10/08 00:50:42;;;;;;;1.30;1.10;;;21.40;59.10;;;;;;217410;1295;24215;-65
2023/10/08 00:55:53;;;;;;;2.40;1.60;;;21.40;59.00;;;;;;217349;1298;22555;-65
2023/10/08 01:01:00;;;;;;;0.80;0.80;;;21.40;58.50;;;;;;217569;1288;24248;-65
2023/10/08 01:06:04;;;;;;;1.50;1.20;;;21.40;58.90;;;;;;217159;1292;24234;-64
2023/10/08 01:11:17;;;;;;;1.30;1.20;;;21.40;59.00;;;;;;216352;1304;25861;-66
2023/10/08 01:16:20;;;;;;;1.80;1.10;;;21.40;58.90;;;;;;216181;1300;24426;-65
2023/10/08 01:21:33;;;;;;;0.80;0.70;;;21.30;58.80;;;;;;216339;1300;25382;-65
2023/10/08 01:26:39;;;;;;;0.50;0.50;;;21.40;58.90;;;;;;216161;1298;22698;-65
2023/10/08 01:31:42;;;;;;;0.90;0.90;;;21.30;58.80;;;;;;217264;1295;24372;-66
2023/10/08 01:36:45;;;;;;;0.50;0.50;;;21.30;58.80;;;;;;217068;1283;22553;-63
2023/10/08 01:41:48;;;;;;;0.80;0.70;;;21.30;58.80;;;;;;217391;1294;22776;-61
2023/10/08 01:46:50;;;;;;;0.70;0.70;;;21.30;59.30;;;;;;217303;1298;24417;-61
2023/10/08 01:51:55;;;;;;;0.50;0.50;;;21.30;58.80;;;;;;217146;1298;22549;-61
2023/10/08 01:56:57;;;;;;;0.70;0.60;;;21.20;59.00;;;;;;217377;1298;22700;-60
2023/10/08 02:02:01;;;;;;;1.30;0.70;;;21.30;58.70;;;;;;217425;1298;22786;-60
2023/10/08 02:07:07;;;;;;;0.60;0.60;;;21.30;58.70;;;;;;217027;1298;23324;-62
2023/10/08 02:12:14;;;;;;;0.80;0.70;;;21.30;58.70;;;;;;217530;1298;22750;-60
2023/10/08 02:17:17;;;;;;;0.60;0.60;;;21.30;59.00;;;;;;217349;1295;22687;-61
2023/10/08 02:22:20;;;;;;;0.60;0.60;;;21.30;58.70;;;;;;217629;1298;22557;-60
2023/10/08 02:27:24;;;;;;;0.50;0.40;;;21.20;58.60;;;;;;217114;1291;23045;-62
2023/10/08 02:32:27;;;;;;;0.60;0.60;;;21.20;58.60;;;;;;217271;1298;22592;-61
2023/10/08 02:37:31;;;;;;;1.40;0.60;;;21.20;58.40;;;;;;217326;1294;22556;-62
2023/10/08 02:42:33;;;;;;;0.40;0.40;;;21.20;58.50;;;;;;217340;1297;24820;-62
2023/10/08 02:47:36;;;;;;;0.50;0.50;;;21.20;58.50;;;;;;217482;1298;22660;-62
2023/10/08 02:52:39;;;;;;;0.80;0.60;;;21.20;58.60;;;;;;217410;1298;22563;-62
2023/10/08 02:57:43;;;;;;;0.80;0.60;;;21.20;58.80;;;;;;217460;1291;23985;-60
2023/10/08 03:02:48;;;;;;;1.20;0.70;;;21.20;58.50;;;;;;217280;1295;22583;-61
2023/10/08 03:07:51;;;;;;;1.20;0.80;;;21.20;58.50;;;;;;217093;1294;240381;-64
2023/10/08 03:12:54;;;;;;;0.80;0.80;;;21.20;58.50;;;;;;217255;1292;24308;-60
2023/10/08 03:18:09;;;;;;;0.70;0.60;;;21.20;58.40;;;;;;217241;1298;22687;-63
2023/10/08 03:23:23;;;;;;;0.70;0.60;;;21.10;58.40;;;;;;217446;1297;25365;-61
2023/10/08 03:28:34;;;;;;;1.30;1.20;;;21.20;58.30;;;;;;217400;1298;22615;-61
2023/10/08 03:33:37;;;;;;;0.80;0.70;;;21.20;58.70;;;;;;217456;1295;22592;-60
2023/10/08 03:38:50;;;;;;;0.60;0.60;;;21.10;58.30;;;;;;217287;1298;22692;-59
2023/10/08 03:44:12;;;;;;;0.60;0.60;;;21.10;59.00;;;;;;217298;1297;23533;-62
2023/10/08 03:54:35;;;;;;;0.60;0.60;;;21.10;58.40;;;;;;216973;1295;22557;-59
2023/10/08 03:59:41;;;;;;;0.60;0.50;;;21.10;58.40;;;;;;217354;1294;25318;-61
2023/10/08 04:04:51;;;;;;;1.20;0.80;;;21.10;58.50;;;;;;217321;1298;23067;-61
2023/10/08 04:15:16;;;;;;;0.90;0.60;;;21.10;58.20;;;;;;217486;1298;22549;-61
2023/10/08 04:25:43;;;;;;;;;;;21.10;58.20;;;;;;217478;1298;22661;-59
2023/10/08 04:30:47;;;;;;;;;;;21.10;58.10;;;;;;217341;1298;24324;-62
2023/10/08 04:35:55;;;;;;;;;;;21.20;58.10;;;;;;217312;1298;24320;-61
2023/10/08 04:41:02;;;;;;;;;;;21.20;58.10;;;;;;217436;1297;23921;-64
2023/10/08 04:51:34;;;;;;;;;;;21.20;58.00;;;;;;217204;1288;22543;-62
2023/10/08 04:56:38;;;;;;;;;;;21.10;58.00;;;;;;217261;1283;22547;-62
2023/10/08 05:01:47;;;;;;;;;;;21.10;58.30;;;;;;217446;1298;22662;-61
2023/10/08 05:07:00;;;;;;;;;;;21.10;58.10;;;;;;217387;1298;25307;-60
2023/10/08 05:12:28;;;;;;;;;;;21.10;58.20;;;;;;217480;1298;22581;-62
2023/10/08 05:17:45;;;;;;;;;;;21.10;58.00;;;;;;217403;1298;24278;-62
2023/10/08 05:22:55;;;;;;;;;;;21.10;58.00;;;;;;217456;1291;22541;-61
2023/10/08 05:27:58;;;;;;;;;;;21.10;58.00;;;;;;217493;1283;22670;-61
2023/10/08 05:48:50;;;;;;;;;;;21.00;58.00;;;;;;217621;1298;22579;-62
2023/10/08 05:53:56;;;;;;;;;;;21.00;58.40;;;;;;217413;1285;22903;-61
2023/10/08 05:59:14;;;;;;;;;;;21.00;58.00;;;;;;217394;1294;22537;-62
2023/10/08 06:10:13;;;;;;;;;;;20.90;58.00;;;;;;216940;1299;24298;-62
2023/10/08 06:15:27;;;;;;;;;;;21.00;57.90;;;;;;217474;1294;22530;-61
2023/10/08 06:20:30;;;;;;;;;;;21.00;58.00;;;;;;217479;1298;25262;-66
2023/10/08 06:25:33;;;;;;;;;;;20.90;58.00;;;;;;217497;1298;22627;-66
2023/10/08 06:30:35;;;;;;;;;;;21.00;57.90;;;;;;217316;1298;22648;-66
2023/10/08 06:35:44;;;;;;;;;;;20.90;57.90;;;;;;217467;1296;22549;-65
2023/10/08 06:40:47;;;;;;;;;;;20.90;57.90;;;;;;217376;1291;22549;-66
2023/10/08 06:45:52;;;;;;;;;;;20.90;57.80;;;;;;217480;1295;22536;-66
2023/10/08 06:50:58;;;;;;;;;;;20.90;57.90;;;;;;217678;1298;22543;-66
2023/10/08 06:56:04;;;;;;;;;;;20.90;57.70;;;;;;217309;1298;22523;-66
2023/10/08 07:01:08;;;;;;;;;;;20.90;57.60;;;;;;217314;1288;22762;-65
2023/10/08 07:06:25;;;;;;;;;;;21.00;57.40;;;;;;217423;1297;22657;-64
2023/10/08 07:11:28;;;;;;;;;;;21.00;57.40;;;;;;217354;1297;25438;-65
2023/10/08 07:16:31;;;;;;;;;;;21.00;57.30;;;;;;217455;1295;22546;-65
2023/10/08 07:21:44;;;;;;;;;;;21.00;57.20;;;;;;217275;1295;22544;-65
2023/10/08 07:26:49;;;;;;;;;;;21.10;57.20;;;;;;217365;1294;22543;-62
2023/10/08 07:31:52;;;;;;;;;;;21.10;57.40;;;;;;217414;1295;25306;-62
2023/10/08 07:36:55;;;;;;;;;;;21.00;57.00;;;;;;217313;1298;25403;-63
2023/10/08 07:41:59;;;;;;;;;;;20.90;57.40;;;;;;217381;1298;25265;-62
2023/10/08 07:47:04;;;;;;;;;;;21.00;57.30;;;;;;217504;1298;22670;-62
2023/10/08 07:52:07;;;;;;;;;;;21.00;57.10;;;;;;217382;1294;22547;-61
2023/10/08 07:57:12;;;;;;;;;;;21.00;57.30;;;;;;217537;1285;22536;-62
2023/10/08 08:02:17;;;;;;;;;;;21.10;57.10;;;;;;217486;1298;24096;-60
2023/10/08 08:07:22;;;;;;;;;;;21.10;57.00;;;;;;217424;1298;25484;-62
2023/10/08 08:12:35;;;;;;;;;;;21.10;57.10;;;;;;217345;1298;22547;-62
2023/10/08 08:17:37;;;;;;;;;;;21.10;57.40;;;;;;217424;1292;23189;-60
2023/10/08 08:22:40;;;;;;;;;;;21.10;57.10;;;;;;217434;1295;22546;-62
2023/10/08 08:27:48;;;;;;;;;;;21.10;57.00;;;;;;217293;1298;24760;-61
2023/10/08 08:32:52;;;;;;;;;;;21.10;56.70;;;;;;217434;1295;25485;-62
2023/10/08 08:37:55;;;;;;;;;;;21.10;56.60;;;;;;217444;1288;22553;-65
2023/10/08 08:43:02;;;;;;;;;;;21.20;55.80;;;;;;217568;1288;25246;-65
2023/10/08 08:48:07;;;;;;;;;;;21.20;56.10;;;;;;217454;1294;22535;-66
2023/10/08 08:53:11;;;;;;;;;;;21.20;55.70;;;;;;217452;1298;24249;-67
2023/10/08 08:58:14;;;;;;;;;;;21.30;55.20;;;;;;217336;1289;22533;-64
2023/10/08 09:03:16;;;;;;;;;;;21.40;55.10;;;;;;217247;1298;22628;-65
2023/10/08 09:08:19;;;;;;;;;;;21.50;54.70;;;;;;217222;1294;23008;-67
2023/10/08 09:13:22;;;;;;;;;;;21.50;55.30;;;;;;217241;1288;22579;-65
2023/10/08 09:18:27;;;;;;;;;;;21.50;54.40;;;;;;217268;1285;22534;-65
2023/10/08 09:23:31;;;;;;;;;;;21.60;54.50;;;;;;217163;1292;25386;-65
2023/10/08 09:28:34;;;;;;;;;;;21.70;54.10;;;;;;217311;1294;22669;-66
2023/10/08 09:33:37;;;;;;;;;;;21.70;53.80;;;;;;217484;1298;25406;-66
2023/10/08 09:38:40;;;;;;;;;;;21.70;53.70;;;;;;217408;1295;22629;-66
2023/10/08 09:43:45;;;;;;;;;;;21.70;53.40;;;;;;217302;1297;22579;-66
2023/10/08 09:48:54;;;;;;;;;;;21.80;53.20;;;;;;217519;1298;22541;-60
2023/10/08 09:54:10;;;;;;;;;;;21.80;53.00;;;;;;217226;1298;25504;-61
2023/10/08 09:59:14;;;;;;;;;;;21.90;52.80;;;;;;217512;1291;22875;-60
2023/10/08 10:04:24;;;;;;;;;;;21.90;52.60;;;;;;217372;1299;23784;-62
2023/10/08 10:09:27;;;;;;;;;;;21.90;52.40;;;;;;217509;1294;22667;-62
2023/10/08 10:14:40;;;;;;;;;;;21.90;52.10;;;;;;217398;1298;22537;-61
2023/10/08 10:19:45;;;;;;;;;;;21.90;51.80;;;;;;217410;1298;26686;-62
2023/10/08 10:24:48;;;;;;;;;;;22.00;51.60;;;;;;217326;1295;22534;-62
2023/10/08 10:30:03;;;;;;;;;;;22.00;51.80;;;;;;217423;1292;22538;-61
2023/10/08 10:35:11;;;;;;;;;;;22.10;51.30;;;;;;217446;1298;22736;-61
2023/10/08 10:40:28;;;;;;;;;;;22.20;51.20;;;;;;217459;1288;24273;-63
2023/10/08 10:45:43;;;;;;;;;;;22.20;51.00;;;;;;217392;1295;22687;-60
2023/10/08 10:56:09;;;;;;;;;;;22.20;50.70;;;;;;216876;1301;23011;-61
2023/10/08 11:01:24;;;;;;;;;;;22.30;50.60;;;;;;216785;1301;22819;-61
2023/10/08 11:06:28;;;;;;;;;;;22.30;50.60;;;;;;216880;1298;22549;-61
2023/10/08 11:11:30;;;;;;;;;;;22.30;50.40;;;;;;216645;1294;22821;-64
2023/10/08 11:16:33;;;;;;;;;;;22.40;50.30;;;;;;216910;1298;22682;-61
2023/10/08 11:21:55;;;;;;;;;;;22.40;50.20;;;;;;217023;1298;22569;-62
2023/10/08 11:27:16;;;;;;;;;;;22.40;50.00;;;;;;217309;1298;24386;-61
2023/10/08 11:32:25;;;;;;;;;;;22.50;49.60;;;;;;217347;1296;25356;-60
2023/10/08 11:37:29;;;;;;;;;;;22.40;49.60;;;;;;217258;1294;25489;-61
2023/10/08 11:42:43;;;;;;;;;;;22.40;49.60;;;;;;217481;1294;22536;-63
2023/10/08 11:47:55;;;;;;;;;;;22.40;49.50;;;;;;217381;1297;22535;-61
2023/10/08 11:53:05;;;;;;;;;;;22.40;49.70;;;;;;217735;1298;24256;-61
2023/10/08 11:58:12;;;;;;;;;;;22.40;49.10;;;;;;217544;1298;22525;-62
2023/10/08 12:03:18;;;;;;;;;;;22.40;49.10;;;;;;217498;1292;22669;-61
2023/10/08 12:08:22;;;;;;;;;;;22.40;49.00;;;;;;217288;1298;22624;-64
2023/10/08 12:13:28;;;;;;;;;;;22.40;49.20;;;;;;217281;1298;23640;-62
2023/10/08 12:18:34;;;;;;;;;;;22.40;48.80;;;;;;217382;1298;22657;-60
2023/10/08 12:23:38;;;;;;;;;;;22.40;48.80;;;;;;217280;1291;26552;-61
2023/10/08 12:28:42;;;;;;;;;;;22.50;48.90;;;;;;217323;1298;22543;-62
2023/10/08 12:33:45;;;;;;;;;;;22.50;48.80;;;;;;217380;1298;22558;-62
2023/10/08 12:38:49;;;;;;;;;;;22.50;49.10;;;;;;217504;1295;22529;-61
2023/10/08 12:43:52;;;;;;;;;;;22.50;48.70;;;;;;217458;1295;22530;-60
2023/10/08 12:48:56;;;;;;;;;;;22.50;48.50;;;;;;217508;1296;23503;-62
2023/10/08 12:54:06;;;;;;;;;;;22.50;48.50;;;;;;217427;1295;22534;-60
2023/10/08 12:59:20;;;;;;;;;;;22.50;48.80;;;;;;217587;1298;22802;-61
2023/10/08 13:04:34;;;;;;;;;;;22.50;48.40;;;;;;217370;1294;22555;-61
2023/10/08 13:09:38;;;;;;;;;;;22.50;48.80;;;;;;217752;1294;22537;-62
2023/10/08 13:14:44;;;;;;;;;;;22.50;48.40;;;;;;217478;1293;24365;-61
2023/10/08 13:19:48;;;;;;;;;;;22.50;48.10;;;;;;217333;1292;23925;-61
2023/10/08 13:24:52;;;;;;;;;;;22.50;48.10;;;;;;217398;1298;25482;-62
2023/10/08 13:29:56;;;;;;;;;;;22.50;48.10;;;;;;217383;1298;22550;-62
2023/10/08 13:35:04;;;;;;;;;;;22.50;48.10;;;;;;217543;1298;24257;-62
2023/10/08 13:40:08;;;;;;;;;;;22.50;48.10;;;;;;216428;1300;23817;-61
2023/10/08 13:45:26;;;;;;;;;;;22.50;47.90;;;;;;216462;1300;25662;-61
2023/10/08 13:50:30;;;;;;;;;;;22.60;47.70;;;;;;216496;1299;25268;-62
2023/10/08 13:55:35;;;;;;;;;;;22.50;47.50;;;;;;216489;1300;22665;-63
2023/10/08 14:00:39;;;;;;;;;;;22.50;47.40;;;;;;216358;1302;24255;-62
2023/10/08 14:05:46;;;;;;;;;;;22.50;47.40;;;;;;217359;1295;24289;-61
2023/10/08 14:10:49;;;;;;;;;;;22.50;47.00;;;;;;217358;1296;23934;-62
2023/10/08 14:15:55;;;;;;;;;;;22.30;47.30;;;;;;217431;1298;26751;-60
2023/10/08 14:20:59;;;;;;;;;;;22.20;47.30;;;;;;217481;1292;22538;-62
2023/10/08 14:26:06;;;;;;;;;;;22.20;47.40;;;;;;217167;1298;22550;-61
2023/10/08 14:31:16;;;;;;;;;;;22.20;47.50;;;;;;217321;1298;24287;-62
2023/10/08 14:47:10;;;;;;;;;;;22.10;47.50;;;;;;217438;1298;24263;-62
2023/10/08 14:52:16;;;;;;;;;;;22.10;47.10;;;;;;217589;1298;22656;-60
2023/10/08 14:57:20;;;;;;;;;;;22.10;47.20;;;;;;217493;1292;22658;-60
2023/10/08 15:02:29;;;;;;;;;;;22.00;46.90;;;;;;217566;1291;22595;-60
2023/10/08 15:07:33;;;;;;;;;;;22.00;47.00;;;;;;217244;1288;271934;-62
2023/10/08 15:12:37;;;;;;;;;;;22.00;46.70;;;;;;217227;1296;22666;-62
2023/10/08 15:17:41;;;;;;;;;;;22.00;46.80;;;;;;217493;1292;22529;-61
2023/10/08 15:22:47;;;;;;;;;;;22.00;46.80;;;;;;217530;1292;23941;-62
2023/10/08 15:27:50;;;;;;;;;;;21.90;46.90;;;;;;217350;1295;25262;-62
2023/10/08 15:32:55;;;;;;;;;;;21.90;46.80;;;;;;217414;1298;22630;-62
2023/10/08 15:37:59;;;;;;;;;;;21.90;47.50;;;;;;217265;1298;23608;-61
2023/10/08 15:43:04;;;;;;;;;;;21.90;46.90;;;;;;217328;1295;23918;-62
2023/10/08 15:48:08;;;;;;;;;;;21.90;46.90;;;;;;216280;1287;23930;-62
2023/10/08 15:53:13;;;;;;;;;;;21.90;47.00;;;;;;216315;1301;24267;-62
2023/10/08 15:58:16;;;;;;;;;;;21.80;47.10;;;;;;216418;1303;23155;-61
2023/10/08 16:03:20;;;;;;;;;;;21.80;47.60;;;;;;216417;1299;22549;-62
2023/10/08 16:08:25;;;;;;;;;;;21.80;47.30;;;;;;217486;1298;22611;-61
2023/10/08 16:13:30;;;;;;;;;;;21.80;47.50;;;;;;217383;1298;23220;-61
2023/10/08 16:18:40;;;;;;;;;;;21.80;47.60;;;;;;217360;1298;25412;-62
2023/10/08 16:23:45;;;;;;;;;;;21.80;47.60;;;;;;217484;1298;22927;-62
2023/10/08 16:28:49;;;;;;;;;;;21.70;47.90;;;;;;217447;1298;25439;-62
2023/10/08 16:33:54;;;;;;;;;;;21.70;47.70;;;;;;217426;1294;22532;-63
2023/10/08 16:38:59;;;;;;;;;;;21.70;48.10;;;;;;217583;1292;22532;-61
2023/10/08 16:44:05;;;;;;;;;;;21.70;47.60;;;;;;217373;1298;25028;-62
2023/10/08 16:49:10;;;;;;;;;;;21.70;48.20;;;;;;217549;1295;24253;-61
2023/10/08 16:54:15;;;;;;;;;;;21.70;48.10;;;;;;217413;1297;24474;-61
2023/10/08 16:59:20;;;;;;;;;;;21.70;48.30;;;;;;217379;1288;24188;-62
2023/10/08 17:04:25;;;;;;;;;;;21.60;48.30;;;;;;216507;1300;24291;-62
2023/10/08 17:09:30;;;;;;;;;;;21.60;48.40;;;;;;216316;1303;23941;-62
2023/10/08 17:14:34;;;;;;;;;;;21.50;48.70;;;;;;216319;1303;23009;-61
2023/10/08 17:19:41;;;;;;;;;;;21.50;49.10;;;;;;216019;1304;25347;-62
2023/10/08 17:24:47;;;;;;;;;;;21.50;48.90;;;;;;216058;1304;22540;-62
2023/10/08 17:29:53;;;;;;;;;;;21.50;49.00;;;;;;216987;1300;22637;-62
2023/10/08 17:34:57;;;;;;;;;;;21.50;49.50;;;;;;217095;1298;22693;-62
2023/10/08 17:40:03;;;;;;;;;;;21.50;49.30;;;;;;217419;1298;24041;-61
2023/10/08 17:45:13;;;;;;;;;;;21.50;49.20;;;;;;217150;1286;22665;-62
2023/10/08 17:50:21;;;;;;;;;;;21.40;49.30;;;;;;217058;1300;24301;-60
2023/10/08 17:55:26;;;;;;;;;;;21.40;49.30;;;;;;217215;1297;22704;-60
2023/10/08 18:00:33;;;;;;;;;;;21.40;49.30;;;;;;217451;1298;22683;-64
2023/10/08 18:05:43;;;;;;;;;;;21.40;49.50;;;;;;217392;1298;22607;-66
2023/10/08 18:10:49;;;;;;;;;;;21.30;49.40;;;;;;217317;1298;22703;-65
2023/10/08 18:15:54;;;;;;;;;;;21.30;49.50;;;;;;217661;1291;24301;-64
2023/10/08 18:21:03;;;;;;;;;;;21.40;49.50;;;;;;217521;1298;24299;-65
2023/10/08 18:26:12;;;;;;;;;;;21.30;49.60;;;;;;217394;1298;24295;-64
2023/10/08 18:31:17;;;;;;;;;;;21.30;49.70;;;;;;217381;1298;26283;-64
2023/10/08 18:36:25;;;;;;;;;;;21.30;49.90;;;;;;217098;1295;22523;-64
2023/10/08 18:41:31;;;;;;;;;;;21.30;49.80;;;;;;217304;1298;22533;-65
2023/10/08 18:46:38;;;;;;;;;;;21.30;50.10;;;;;;217425;1295;22532;-65
2023/10/08 18:51:46;;;;;;;;;;;21.30;49.60;;;;;;217342;1298;23895;-65
2023/10/08 18:56:54;;;;;;;;;;;21.30;49.80;;;;;;217496;1283;24248;-65
2023/10/08 19:02:00;;;;;;;;;;;21.30;49.90;;;;;;217351;1298;22668;-66
2023/10/08 19:07:13;;;;;;;;;;;21.30;50.00;;;;;;217571;1288;25884;-63
2023/10/08 19:12:19;;;;;;;;;;;21.20;50.00;;;;;;217418;1298;22582;-62
2023/10/08 19:17:26;;;;;;;;;;;21.20;50.10;;;;;;217642;1298;22541;-60
2023/10/08 19:22:33;;;;;;;;;;;21.20;50.00;;;;;;217342;1285;22540;-61
2023/10/08 19:27:40;;;;;;;;;;;21.20;50.50;;;;;;217478;1292;22520;-61
2023/10/08 19:32:47;;;;;;;;;;;21.20;50.50;;;;;;217489;1298;25657;-62
2023/10/08 19:37:52;;;;;;;;;;;21.20;50.20;;;;;;217472;1298;23032;-62
2023/10/08 19:42:58;;;;;;;;;;;21.10;50.50;;;;;;217416;1298;25650;-61
2023/10/08 19:48:06;;;;;;;;;;;21.20;50.20;;;;;;217187;1294;22659;-61
2023/10/08 19:53:13;;;;;;;;;;;21.20;50.30;;;;;;217239;1298;24109;-61
2023/10/08 19:58:21;;;;;;;;;;;21.20;50.30;;;;;;217525;1298;22536;-61
2023/10/08 20:03:26;;;;;;;;;;;21.10;50.30;;;;;;217735;1294;22538;-60
2023/10/08 20:08:35;;;;;;;;;;;21.10;50.80;;;;;;217438;1294;22534;-60
2023/10/08 20:13:40;;;;;;;;;;;21.10;50.40;;;;;;217414;1298;25262;-59
2023/10/08 20:18:43;;;;;;;;;;;21.10;50.50;;;;;;217448;1288;24409;-63
2023/10/08 20:23:50;;;;;;;;;;;21.10;50.50;;;;;;217398;1298;24248;-61
2023/10/08 20:28:55;;;;;;;;;;;21.00;50.40;;;;;;217477;1298;25350;-60
2023/10/08 20:33:59;;;;;;;;;;;21.10;50.50;;;;;;217411;1291;22825;-62
2023/10/08 20:39:02;;;;;;;;;;;21.10;50.50;;;;;;217617;1298;22698;-60
2023/10/08 20:44:06;;;;;;;;;;;21.00;50.90;;;;;;217738;1283;24251;-62
2023/10/08 20:49:10;;;;;;;;;;;21.00;50.60;;;;;;217455;1298;23848;-61
2023/10/08 20:54:14;;;;;;;;;;;21.00;50.70;;;;;;217383;1295;22617;-60
2023/10/08 20:59:18;;;;;;;;;;;21.00;50.80;;;;;;217645;1298;22543;-60
2023/10/08 21:04:21;;;;;;;;;;;21.00;51.20;;;;;;217388;1298;22527;-62
2023/10/08 21:09:24;;;;;;;;;;;21.00;50.80;;;;;;217521;1285;22609;-61
2023/10/08 21:14:27;;;;;;;;;;;20.90;50.80;;;;;;217487;1298;22680;-61
2023/10/08 21:19:30;;;;;;;;;;;20.90;50.80;;;;;;217231;1291;22547;-62
2023/10/08 21:24:33;;;;;;;;;;;21.00;50.90;;;;;;217504;1295;22734;-61
2023/10/08 21:29:36;;;;;;;;;;;20.90;50.90;;;;;;217347;1291;24047;-65
2023/10/08 21:34:39;;;;;;;;;;;20.90;51.00;;;;;;217547;1298;22541;-61
2023/10/08 21:39:42;;;;;;;;;;;20.90;51.30;;;;;;217422;1285;22625;-63
2023/10/08 21:44:48;;;;;;;;;;;20.90;51.00;;;;;;217451;1297;22543;-62
2023/10/08 21:49:50;;;;;;;;;;;20.90;51.10;;;;;;217357;1298;22621;-61
2023/10/08 21:54:54;;;;;;;;;;;20.80;51.10;;;;;;217497;1294;22676;-61
2023/10/08 21:59:57;;;;;;;;;;;20.80;51.10;;;;;;217504;1298;22688;-61
2023/10/08 22:04:59;;;;;;;;;;;20.80;51.00;;;;;;217508;1298;24382;-60
2023/10/08 22:10:05;;;;;;;;;;;20.80;51.10;;;;;;217363;1298;24282;-60
2023/10/08 22:15:15;;;;;;;;;;;20.80;51.20;;;;;;217398;1298;22543;-59
2023/10/08 22:25:52;;;;;;;;;;;20.80;51.50;;;;;;217272;1294;22752;-61
2023/10/08 22:30:54;;;;;;;;;;;20.80;51.20;;;;;;217409;1298;24296;-61
2023/10/08 22:36:03;;;;;;;;;;;20.80;51.10;;;;;;217474;1298;25425;-61
2023/10/08 22:46:10;;;;;;;;;;;20.70;51.20;;;;;;217403;1298;22533;-66
2023/10/08 22:56:25;;;;;;;;;;;20.70;51.10;;;;;;217348;1298;24279;-65
2023/10/08 23:01:29;;;;;;;;;;;20.70;51.30;;;;;;217395;1298;23625;-65
2023/10/08 23:06:31;;;;;;;;;;;20.60;51.30;;;;;;217532;1298;22556;-65
2023/10/08 23:11:35;;;;;;;;;;;20.60;51.40;;;;;;217296;1298;23916;-66
2023/10/08 23:16:40;;;;;;;;;;;20.60;51.40;;;;;;217341;1298;22549;-65
2023/10/08 23:21:46;;;;;;;;;;;20.60;51.60;;;;;;217614;1282;22544;-67
2023/10/08 23:26:49;;;;;;;;;;;20.60;51.30;;;;;;217640;1298;22536;-65
2023/10/08 23:31:52;;;;;;;;;;;20.60;51.30;;;;;;217334;1291;22583;-65
2023/10/08 23:37:09;;;;;;;;;;;20.60;51.80;;;;;;217356;1298;25708;-65
2023/10/08 23:42:31;;;;;;;;;;;20.60;51.50;;;;;;217301;1296;22527;-65
2023/10/08 23:47:45;;;;;;;;;;;20.60;51.50;;;;;;217647;1294;22769;-65
2023/10/08 23:52:49;;;;;;;;;;;20.60;51.40;;;;;;217317;1298;22569;-64
2023/10/08 23:58:05;;;;;;;;;;;20.60;51.40;;;;;;217588;1288;22633;-66
